Time;durP1;ratioP1;P1;durP2;ratioP2;P2;SDS_P1;SDS_P2;PMS_P1;PMS_P2;Temp;Humidity;BMP_temperature;BMP_pressure;BME280_temperature;BME280_humidity;BME280_pressure;Samples;Min_cycle;Max_cycle;Signal;HPM_P1;HPM_P2
2023/02/20 00:00:44;;;;;;;;;;;;;;;17.03;44.65;100624.91;5076303;28;1141;-45
2023/02/20 00:03:10;;;;;;;;;;;;;;;16.25;46.15;100622.25;5076236;28;1089;-45
2023/02/20 00:05:36;;;;;;;;;;;;;;;17.33;44.42;100623.94;5074789;28;1362;-47
2023/02/20 00:08:01;;;;;;;;;;;;;;;16.99;45.13;100624.63;5075988;28;881;-44
2023/02/20 00:10:27;;;;;;;;;;;;;;;16.37;45.90;100627.50;5075983;28;1059;-44
2023/02/20 00:12:52;;;;;;;;;;;;;;;16.14;46.09;100622.56;5075954;28;1986;-46
2023/02/20 00:15:18;;;;;;;;;;;;;;;17.00;44.97;100618.06;5076201;28;1134;-43
2023/02/20 00:17:46;;;;;;;;;;;;;;;16.32;45.82;100619.25;5076115;28;1106;-47
2023/02/20 00:20:21;;;;;;;;;;;;;;;15.99;45.89;100615.97;5076136;28;1053;-46
2023/02/20 00:22:47;;;;;;;;;;;;;;;16.68;45.42;100608.22;5076500;28;1091;-45
2023/02/20 00:25:12;;;;;;;;;;;;;;;16.40;45.74;100604.97;5075526;28;1213;-42
2023/02/20 00:27:37;;;;;;;;;;;;;;;16.08;45.75;100606.09;5075471;28;1241;-42
2023/02/20 00:30:03;;;;;;;;;;;;;;;16.33;46.07;100607.19;5076456;28;1094;-44
2023/02/20 00:32:29;;;;;;;;;;;;;;;16.49;45.78;100609.91;5074298;28;1982;-46
2023/02/20 00:34:54;;;;;;;;;;;;;;;16.01;46.07;100611.03;5108554;28;1177;-44
2023/02/20 00:37:19;;;;;;;;;;;;;;;17.33;44.35;100607.44;5076408;28;1082;-44
2023/02/20 00:39:45;;;;;;;;;;;;;;;16.56;45.66;100610.44;5074739;28;1591;-42
2023/02/20 00:42:10;;;;;;;;;;;;;;;16.15;45.94;100600.34;5076593;28;1110;-48
2023/02/20 00:44:37;;;;;;;;;;;;;;;16.15;46.21;100602.25;5087288;28;1087;-47
2023/02/20 00:47:02;;;;;;;;;;;;;;;16.71;45.44;100602.16;5074336;28;1187;-46
2023/02/20 00:49:28;;;;;;;;;;;;;;;16.12;46.31;100605.53;5108750;28;1472;-45
2023/02/20 00:52:06;;;;;;;;;;;;;;;15.94;45.72;100631.59;5076012;28;1975;-41
2023/02/20 00:54:33;;;;;;;;;;;;;;;16.98;44.94;100624.91;5075770;28;1050;-42
2023/02/20 00:56:59;;;;;;;;;;;;;;;16.11;46.11;100629.41;5074335;28;1097;-47
2023/02/20 00:59:24;;;;;;;;;;;;;;;17.48;44.20;100630.47;5075616;28;1149;-46
2023/02/20 01:01:50;;;;;;;;;;;;;;;17.21;44.56;100634.47;5075819;28;1038;-47
2023/02/20 01:04:15;;;;;;;;;;;;;;;16.48;46.13;100632.97;5076238;28;1087;-45
2023/02/20 01:06:41;;;;;;;;;;;;;;;16.74;45.92;100640.03;5074536;28;1807;-45
2023/02/20 01:09:06;;;;;;;;;;;;;;;16.65;45.62;100647.22;5075229;28;861;-43
2023/02/20 01:11:31;;;;;;;;;;;;;;;16.17;46.09;100657.66;5074708;28;1906;-42
2023/02/20 01:13:58;;;;;;;;;;;;;;;16.02;45.88;100655.72;5075946;28;1121;-45
2023/02/20 01:16:23;;;;;;;;;;;;;;;15.89;45.28;100659.81;5075977;28;1105;-43
2023/02/20 01:18:49;;;;;;;;;;;;;;;17.32;44.49;100660.78;5075773;28;1094;-46
2023/02/20 01:21:16;;;;;;;;;;;;;;;16.33;46.11;100661.25;5075693;28;852;-46
2023/02/20 01:23:41;;;;;;;;;;;;;;;17.04;45.37;100667.75;5075334;28;1325;-44
2023/02/20 01:26:07;;;;;;;;;;;;;;;17.06;45.06;100669.09;5079066;28;1178;-44
2023/02/20 01:28:32;;;;;;;;;;;;;;;16.39;45.78;100674.69;5079107;28;1226;-43
2023/02/20 01:30:58;;;;;;;;;;;;;;;17.93;43.24;100678.09;5079434;28;1910;-45
2023/02/20 01:33:23;;;;;;;;;;;;;;;16.65;45.89;100663.69;5079021;28;941;-42
2023/02/20 01:35:50;;;;;;;;;;;;;;;16.35;45.64;100667.28;5079345;28;1138;-41
2023/02/20 01:38:15;;;;;;;;;;;;;;;16.13;45.43;100673.03;5090352;28;1125;-45
2023/02/20 01:40:45;;;;;;;;;;;;;;;16.55;45.69;100674.66;5080026;28;1118;-42
2023/02/20 01:43:11;;;;;;;;;;;;;;;16.51;45.85;100670.81;5078762;28;1129;-43
2023/02/20 01:45:36;;;;;;;;;;;;;;;16.09;45.67;100672.75;5078236;28;852;-44
2023/02/20 01:48:02;;;;;;;;;;;;;;;15.89;45.39;100681.75;5078523;28;1214;-44
2023/02/20 01:50:29;;;;;;;;;;;;;;;17.10;44.70;100669.38;5079074;28;1078;-45
2023/02/20 01:52:56;;;;;;;;;;;;;;;16.22;45.77;100663.97;5077100;28;1909;-44
2023/02/20 01:55:25;;;;;;;;;;;;;;;17.56;44.09;100674.69;5094145;28;1023;-46
2023/02/20 01:58:14;;;;;;;;;;;;;;;16.92;45.29;100676.31;5078452;28;1082;-41
2023/02/20 02:00:39;;;;;;;;;;;;;;;16.34;45.88;100680.19;5060752;28;1378;-44
2023/02/20 02:03:14;;;;;;;;;;;;;;;16.17;45.28;100679.59;5077345;28;1207;-45
2023/02/20 02:05:41;;;;;;;;;;;;;;;16.98;45.23;100686.16;5060627;28;1206;-45
2023/02/20 02:08:07;;;;;;;;;;;;;;;16.47;45.95;100683.47;5076653;28;1056;-43
2023/02/20 02:10:54;;;;;;;;;;;;;;;16.10;45.95;100682.63;5077324;28;1105;-45
2023/02/20 02:13:20;;;;;;;;;;;;;;;16.86;45.07;100683.69;5078366;28;1437;-43
2023/02/20 02:15:45;;;;;;;;;;;;;;;16.22;46.14;100682.38;5078434;28;1054;-45
2023/02/20 02:18:13;;;;;;;;;;;;;;;16.42;46.07;100685.13;5078529;28;1099;-47
2023/02/20 02:20:50;;;;;;;;;;;;;;;16.48;45.92;100682.34;5078329;28;995;-43
2023/02/20 02:23:48;;;;;;;;;;;;;;;16.07;45.98;100678.53;5077670;28;1036;-45
2023/02/20 02:26:29;;;;;;;;;;;;;;;17.43;44.20;100676.13;5045704;28;1536;-42
2023/02/20 02:29:06;;;;;;;;;;;;;;;16.39;45.85;100677.41;5110304;28;1111;-45
2023/02/20 02:31:39;;;;;;;;;;;;;;;16.10;45.80;100703.75;5078041;28;1906;-46
2023/02/20 02:34:08;;;;;;;;;;;;;;;15.86;45.51;100701.50;5060096;28;2117;-44
2023/02/20 02:36:33;;;;;;;;;;;;;;;15.81;45.16;100690.50;5077197;28;1086;-42
2023/02/20 02:39:17;;;;;;;;;;;;;;;16.73;45.35;100676.88;5076519;28;1193;-45
2023/02/20 02:41:53;;;;;;;;;;;;;;;16.06;45.98;100685.09;5077983;28;1116;-43
2023/02/20 02:44:22;;;;;;;;;;;;;;;17.49;44.40;100681.59;5076334;28;1175;-45
2023/02/20 02:46:55;;;;;;;;;;;;;;;16.43;46.03;100685.94;5064538;28;1063;-44
2023/02/20 02:49:33;;;;;;;;;;;;;;;15.95;46.33;100705.38;5076412;28;1255;-43
2023/02/20 02:51:58;;;;;;;;;;;;;;;16.68;45.57;100712.56;5076396;28;1971;-47
2023/02/20 02:54:27;;;;;;;;;;;;;;;16.33;46.24;100722.44;5076658;28;1489;-43
2023/02/20 02:56:54;;;;;;;;;;;;;;;16.16;46.70;100721.84;5077520;28;1023;-44
2023/02/20 02:59:31;;;;;;;;;;;;;;;17.37;44.18;100707.47;5089199;28;1177;-46
2023/02/20 03:02:00;;;;;;;;;;;;;;;16.22;46.08;100707.88;5077575;28;1062;-45
2023/02/20 03:04:26;;;;;;;;;;;;;;;16.80;45.59;100706.75;5077469;28;991;-47
2023/02/20 03:06:52;;;;;;;;;;;;;;;16.55;45.75;100700.22;5076000;28;1086;-43
2023/02/20 03:09:38;;;;;;;;;;;;;;;16.11;45.99;100725.41;5075945;28;1145;-43
2023/02/20 03:12:06;;;;;;;;;;;;;;;17.14;44.64;100716.34;5077415;28;1898;-46
2023/02/20 03:17:27;;;;;;;;;;;;;;;16.11;45.53;100724.59;5077621;28;1059;-44
2023/02/20 03:19:55;;;;;;;;;;;;;;;16.99;45.11;100712.53;5076140;28;1122;-43
2023/02/20 03:22:26;;;;;;;;;;;;;;;16.29;45.97;100735.06;5108933;28;961;-42
2023/02/20 03:24:56;;;;;;;;;;;;;;;16.51;46.02;100753.16;5076191;28;1146;-43
2023/02/20 03:27:40;;;;;;;;;;;;;;;16.53;45.69;100776.50;5075880;28;1219;-44
2023/02/20 03:30:11;;;;;;;;;;;;;;;17.12;45.19;100781.75;5075511;28;1156;-45
2023/02/20 03:43:34;;;;;;;;;;;;;;;15.97;44.84;100812.88;5075181;28;1428;-45
2023/02/20 03:46:01;;;;;;;;;;;;;;;16.85;44.98;100822.09;5075286;28;920;-42
2023/02/20 03:48:27;;;;;;;;;;;;;;;16.37;46.18;100833.31;5058624;28;2109;-45
2023/02/20 03:50:52;;;;;;;;;;;;;;;18.32;42.69;100845.16;5075003;28;1976;-46
2023/02/20 03:53:22;;;;;;;;;;;;;;;16.99;45.31;100838.91;5091824;28;1334;-47
2023/02/20 03:55:47;;;;;;;;;;;;;;;16.53;45.79;100863.53;5075662;28;1114;-45
2023/02/20 03:58:14;;;;;;;;;;;;;;;16.29;45.53;100874.19;5108781;28;1283;-46
2023/02/20 04:00:41;;;;;;;;;;;;;;;16.15;45.37;100880.16;5075593;28;1202;-46
2023/02/20 04:03:10;;;;;;;;;;;;;;;17.36;44.63;100880.91;5108706;28;1219;-48
2023/02/20 04:05:39;;;;;;;;;;;;;;;16.45;45.99;100897.00;5059103;28;1139;-43
2023/02/20 04:08:10;;;;;;;;;;;;;;;16.15;45.71;100890.31;5109031;28;1279;-45
2023/02/20 04:10:43;;;;;;;;;;;;;;;17.27;44.81;100884.22;5058053;28;1365;-45
2023/02/20 04:13:10;;;;;;;;;;;;;;;16.32;46.03;100863.47;5091188;28;1910;-45
2023/02/20 04:15:36;;;;;;;;;;;;;;;16.00;46.28;100875.41;5089612;28;1145;-43
2023/02/20 04:18:03;;;;;;;;;;;;;;;16.98;44.99;100878.44;5062160;28;1277;-46
2023/02/20 04:20:29;;;;;;;;;;;;;;;16.15;46.27;100879.34;5054591;28;1467;-47
2023/02/20 04:23:08;;;;;;;;;;;;;;;16.24;46.05;100886.78;5084377;28;1280;-47
2023/02/20 04:25:37;;;;;;;;;;;;;;;16.68;45.47;100899.25;5057454;28;1259;-47
2023/02/20 04:28:03;;;;;;;;;;;;;;;16.15;45.89;100909.50;5075447;28;1050;-48
2023/02/20 04:30:29;;;;;;;;;;;;;;;15.99;45.55;100908.59;5058062;28;1503;-45
2023/02/20 04:32:55;;;;;;;;;;;;;;;17.20;44.56;100930.38;5090941;28;1977;-46
2023/02/20 04:35:21;;;;;;;;;;;;;;;16.21;46.24;100922.97;5074755;28;1225;-43
2023/02/20 04:37:49;;;;;;;;;;;;;;;16.29;46.34;100929.88;5085491;28;1355;-47
2023/02/20 04:40:15;;;;;;;;;;;;;;;17.08;44.87;100935.31;5108007;28;1038;-43
2023/02/20 04:42:40;;;;;;;;;;;;;;;16.18;46.54;100934.47;5074441;28;1220;-46
2023/02/20 04:45:06;;;;;;;;;;;;;;;17.98;43.27;100942.19;5074946;28;2549;-46
2023/02/20 04:47:32;;;;;;;;;;;;;;;16.82;45.56;100953.66;5074337;28;1185;-46
2023/02/20 04:49:57;;;;;;;;;;;;;;;16.41;45.62;100946.94;5107964;28;1247;-48
2023/02/20 04:52:24;;;;;;;;;;;;;;;16.19;45.87;100954.53;5074490;28;1902;-46
2023/02/20 04:54:50;;;;;;;;;;;;;;;16.02;45.60;100955.53;5084254;28;1158;-44
2023/02/20 04:57:18;;;;;;;;;;;;;;;15.89;45.23;100961.47;5073846;28;1456;-46
2023/02/20 04:59:45;;;;;;;;;;;;;;;17.05;44.53;100969.66;5111463;28;1351;-45
2023/02/20 05:02:10;;;;;;;;;;;;;;;16.14;45.97;100976.44;5077888;28;1964;-46
2023/02/20 05:04:36;;;;;;;;;;;;;;;15.91;45.83;100975.75;5079494;28;1110;-46
2023/02/20 05:07:01;;;;;;;;;;;;;;;15.77;45.44;100967.13;5079300;28;1030;-47
2023/02/20 05:09:26;;;;;;;;;;;;;;;16.91;45.04;100974.03;5079117;28;1050;-43
2023/02/20 05:11:52;;;;;;;;;;;;;;;16.08;46.32;100987.38;5079452;28;1971;-44
2023/02/20 05:14:17;;;;;;;;;;;;;;;17.41;44.26;100985.38;5069556;28;2496;-44
2023/02/20 05:16:45;;;;;;;;;;;;;;;16.77;45.44;100985.50;5079448;28;1090;-45
2023/02/20 05:19:11;;;;;;;;;;;;;;;16.32;46.02;100984.22;5078913;28;1058;-46
2023/02/20 05:24:20;;;;;;;;;;;;;;;16.17;45.96;100997.84;5066756;28;1128;-45
2023/02/20 05:26:46;;;;;;;;;;;;;;;16.67;45.72;101010.16;5078830;28;1007;-44
2023/02/20 05:29:12;;;;;;;;;;;;;;;16.12;45.89;101014.25;5078731;28;1154;-43
2023/02/20 05:31:40;;;;;;;;;;;;;;;18.01;43.32;101018.66;5078814;28;1926;-45
2023/02/20 05:34:06;;;;;;;;;;;;;;;16.69;45.44;101023.63;5078614;28;1213;-47
2023/02/20 05:36:31;;;;;;;;;;;;;;;16.22;46.01;101019.84;5078354;28;1074;-42
2023/02/20 05:38:57;;;;;;;;;;;;;;;16.03;46.02;101022.16;5079016;28;1123;-45
2023/02/20 05:41:22;;;;;;;;;;;;;;;16.00;45.87;101037.22;5078875;28;1205;-43
2023/02/20 05:43:48;;;;;;;;;;;;;;;16.99;44.95;101042.19;5078375;28;2378;-47
2023/02/20 05:46:14;;;;;;;;;;;;;;;17.42;44.58;101056.56;5077981;28;1131;-46
2023/02/20 05:48:39;;;;;;;;;;;;;;;18.84;41.45;101068.81;5078719;28;1143;-45
2023/02/20 05:51:05;;;;;;;;;;;;;;;17.56;44.17;101069.81;5078330;28;1972;-43
2023/02/20 05:53:30;;;;;;;;;;;;;;;16.90;45.38;101074.84;5078999;28;1117;-45
2023/02/20 05:55:56;;;;;;;;;;;;;;;16.44;45.97;101085.56;5078321;28;1134;-47
2023/02/20 05:58:21;;;;;;;;;;;;;;;16.31;45.76;101086.81;5078595;28;1244;-45
2023/02/20 06:00:47;;;;;;;;;;;;;;;17.28;44.85;101099.44;5078674;28;1051;-44
2023/02/20 06:03:13;;;;;;;;;;;;;;;16.51;46.05;101119.09;5078083;28;1094;-47
2023/02/20 06:05:38;;;;;;;;;;;;;;;16.18;46.20;101125.72;5077019;28;1461;-45
2023/02/20 06:08:04;;;;;;;;;;;;;;;17.20;45.03;101138.44;5078323;28;1083;-45
2023/02/20 06:10:30;;;;;;;;;;;;;;;16.49;45.97;101158.88;5077019;28;1090;-43
2023/02/20 06:12:55;;;;;;;;;;;;;;;16.42;45.80;101162.69;5078082;28;1906;-43
2023/02/20 06:15:20;;;;;;;;;;;;;;;16.58;45.14;101184.75;5068609;28;2235;-43
2023/02/20 06:17:46;;;;;;;;;;;;;;;17.17;44.25;101189.25;5073912;28;972;-46
2023/02/20 06:20:11;;;;;;;;;;;;;;;16.62;45.63;101196.03;5077674;28;1070;-47
2023/02/20 06:22:37;;;;;;;;;;;;;;;16.36;45.91;101207.63;5069408;28;1170;-48
2023/02/20 06:25:02;;;;;;;;;;;;;;;16.23;46.30;101203.41;5078258;28;1131;-48
2023/02/20 06:27:28;;;;;;;;;;;;;;;16.01;46.80;101197.97;5077516;28;1489;-47
2023/02/20 06:29:53;;;;;;;;;;;;;;;15.89;47.37;101200.06;5078205;28;1075;-47
2023/02/20 06:32:18;;;;;;;;;;;;;;;15.74;47.38;101192.47;5077957;28;1975;-48
2023/02/20 06:34:44;;;;;;;;;;;;;;;15.66;47.57;101203.91;5077333;28;1062;-46
2023/02/20 06:37:09;;;;;;;;;;;;;;;15.49;48.31;101210.28;5077955;28;1201;-48
2023/02/20 06:39:35;;;;;;;;;;;;;;;15.42;48.15;101223.34;5077640;28;1031;-49
2023/02/20 06:42:00;;;;;;;;;;;;;;;15.35;48.52;101212.56;5077567;28;1090;-49
2023/02/20 06:44:25;;;;;;;;;;;;;;;15.25;48.66;101220.69;5077131;28;2032;-53
2023/02/20 06:46:51;;;;;;;;;;;;;;;15.30;48.59;101217.97;5076806;28;1173;-45
2023/02/20 06:49:16;;;;;;;;;;;;;;;17.02;44.21;101211.97;5077054;28;1067;-50
2023/02/20 06:51:42;;;;;;;;;;;;;;;16.39;45.67;101218.06;5077497;28;1910;-49
2023/02/20 06:54:08;;;;;;;;;;;;;;;15.80;46.93;101213.41;5077035;28;1293;-46
2023/02/20 06:56:34;;;;;;;;;;;;;;;15.57;47.84;101219.94;5075122;28;1198;-48
2023/02/20 06:59:00;;;;;;;;;;;;;;;15.40;48.27;101231.84;5077115;28;1175;-46
2023/02/20 07:01:27;;;;;;;;;;;;;;;15.26;48.28;101235.19;5077497;28;1249;-49
2023/02/20 07:03:54;;;;;;;;;;;;;;;15.71;47.66;101225.88;5077286;28;1093;-47
2023/02/20 07:06:19;;;;;;;;;;;;;;;17.20;43.78;101235.44;5075801;28;1257;-49
2023/02/20 07:08:45;;;;;;;;;;;;;;;16.10;46.13;101233.19;5071573;28;1206;-47
2023/02/20 07:11:10;;;;;;;;;;;;;;;15.72;47.12;101239.34;5074135;28;1968;-46
2023/02/20 07:13:36;;;;;;;;;;;;;;;15.51;47.82;101231.94;5075240;28;1239;-53
2023/02/20 07:16:01;;;;;;;;;;;;;;;15.31;48.30;101238.81;5077409;28;1218;-45
2023/02/20 07:18:27;;;;;;;;;;;;;;;15.21;48.54;101238.69;5076485;28;1174;-43
2023/02/20 07:20:53;;;;;;;;;;;;;;;15.64;47.76;101256.25;5076467;28;1221;-43
2023/02/20 07:23:18;;;;;;;;;;;;;;;17.17;43.64;101244.22;5075850;28;1250;-51
2023/02/20 07:25:44;;;;;;;;;;;;;;;16.22;45.74;101250.31;5076753;28;1525;-50
2023/02/20 07:28:09;;;;;;;;;;;;;;;15.76;47.02;101258.84;5076680;28;1047;-49
2023/02/20 07:30:35;;;;;;;;;;;;;;;15.49;47.70;101258.81;5076743;28;1074;-48
2023/02/20 07:33:00;;;;;;;;;;;;;;;15.33;48.03;101265.97;5076519;28;1910;-46
2023/02/20 07:35:25;;;;;;;;;;;;;;;16.83;44.68;101277.47;5076393;28;957;-49
2023/02/20 07:37:52;;;;;;;;;;;;;;;16.71;44.89;101282.31;5072450;28;1253;-46
2023/02/20 07:40:17;;;;;;;;;;;;;;;15.92;46.56;101281.81;5071178;28;1234;-44
2023/02/20 07:42:43;;;;;;;;;;;;;;;15.70;47.57;101290.84;5076847;28;1135;-48
2023/02/20 07:45:20;;;;;;;;;;;;;;;15.45;48.20;101298.75;5075074;28;1157;-42
2023/02/20 07:47:45;;;;;;;;;;;;;;;15.29;48.73;101300.44;5075561;28;1210;-47
2023/02/20 07:50:11;;;;;;;;;;;;;;;15.43;48.53;101304.50;5070962;28;1249;-45
2023/02/20 07:52:36;;;;;;;;;;;;;;;17.07;44.35;101302.69;5062868;28;1898;-48
2023/02/20 07:55:02;;;;;;;;;;;;;;;16.53;45.28;101311.00;5074668;28;1083;-43
2023/02/20 07:57:27;;;;;;;;;;;;;;;15.95;46.98;101314.22;5076495;28;1166;-45
2023/02/20 07:59:53;;;;;;;;;;;;;;;15.66;47.60;101319.03;5075964;28;1205;-48
2023/02/20 08:02:19;;;;;;;;;;;;;;;15.48;48.17;101326.47;5076917;28;1130;-47
2023/02/20 08:04:45;;;;;;;;;;;;;;;15.29;48.71;101323.19;5076359;28;1198;-43
2023/02/20 08:07:10;;;;;;;;;;;;;;;16.37;45.99;101330.06;5076268;28;1273;-42
2023/02/20 08:09:36;;;;;;;;;;;;;;;17.17;44.20;101334.09;5076718;28;1119;-47
2023/02/20 08:12:01;;;;;;;;;;;;;;;16.16;46.31;101336.38;5075814;28;1969;-47
2023/02/20 08:14:27;;;;;;;;;;;;;;;15.76;47.58;101332.88;5074148;28;1143;-48
2023/02/20 08:16:52;;;;;;;;;;;;;;;15.57;48.07;101343.31;5069923;28;1186;-43
2023/02/20 08:19:18;;;;;;;;;;;;;;;15.40;48.29;101346.94;5075443;28;1095;-47
2023/02/20 08:21:43;;;;;;;;;;;;;;;15.29;48.66;101352.50;5070692;28;1165;-48
2023/02/20 08:24:09;;;;;;;;;;;;;;;16.93;44.66;101350.94;5064585;28;1142;-48
2023/02/20 08:26:34;;;;;;;;;;;;;;;16.95;44.33;101351.47;5067446;28;1264;-47
2023/02/20 08:29:00;;;;;;;;;;;;;;;16.06;46.56;101356.31;5075878;28;1063;-47
2023/02/20 08:31:27;;;;;;;;;;;;;;;15.73;47.38;101371.78;5074320;28;1977;-45
2023/02/20 08:33:52;;;;;;;;;;;;;;;15.53;48.14;101373.16;5077531;28;1078;-47
2023/02/20 08:36:18;;;;;;;;;;;;;;;15.31;48.58;101385.97;5079960;28;929;-42
2023/02/20 08:38:43;;;;;;;;;;;;;;;16.30;46.30;101370.59;5080207;28;1258;-43
2023/02/20 08:41:09;;;;;;;;;;;;;;;17.22;43.68;101372.56;5076457;28;1186;-43
2023/02/20 08:43:35;;;;;;;;;;;;;;;16.19;46.45;101377.06;5072539;28;1328;-44
2023/02/20 08:46:00;;;;;;;;;;;;;;;15.79;47.26;101380.91;5078205;28;1007;-44
2023/02/20 08:48:26;;;;;;;;;;;;;;;15.55;47.80;101378.38;5077293;28;974;-45
2023/02/20 08:50:51;;;;;;;;;;;;;;;15.41;48.11;101380.63;5078108;28;1166;-46
2023/02/20 08:53:17;;;;;;;;;;;;;;;16.57;45.47;101378.03;5075045;28;1906;-47
2023/02/20 08:55:42;;;;;;;;;;;;;;;17.15;43.96;101393.97;5078040;28;1163;-43
2023/02/20 08:58:08;;;;;;;;;;;;;;;16.17;46.27;101401.16;5077881;28;1206;-45
2023/02/20 09:00:33;;;;;;;;;;;;;;;15.77;47.43;101405.00;5078013;28;1162;-45
2023/02/20 09:02:59;;;;;;;;;;;;;;;15.58;47.90;101410.75;5077618;28;1191;-48
2023/02/20 09:05:24;;;;;;;;;;;;;;;15.43;48.26;101411.38;5077666;28;1233;-43
2023/02/20 09:07:50;;;;;;;;;;;;;;;16.11;46.51;101407.69;5078554;28;1241;-44
2023/02/20 09:10:18;;;;;;;;;;;;;;;17.23;43.71;101405.28;5078251;28;1198;-45
2023/02/20 09:12:44;;;;;;;;;;;;;;;16.12;46.50;101401.94;5077907;28;1910;-44
2023/02/20 09:15:10;;;;;;;;;;;;;;;15.77;47.53;101407.72;5071831;28;978;-43
2023/02/20 09:17:35;;;;;;;;;;;;;;;15.56;47.81;101411.00;5074106;28;1154;-43
2023/02/20 09:20:01;;;;;;;;;;;;;;;15.38;48.41;101414.03;5075926;28;978;-48
2023/02/20 09:22:26;;;;;;;;;;;;;;;15.45;48.48;101419.34;5068397;28;1011;-43
2023/02/20 09:24:52;;;;;;;;;;;;;;;17.07;44.53;101418.09;5075270;28;1259;-44
2023/02/20 09:27:17;;;;;;;;;;;;;;;16.76;45.02;101434.25;5077015;28;1191;-47
2023/02/20 09:29:43;;;;;;;;;;;;;;;16.02;46.72;101434.72;5075347;28;1225;-45
2023/02/20 09:32:09;;;;;;;;;;;;;;;15.72;47.33;101423.06;5076820;28;1901;-44
2023/02/20 09:34:34;;;;;;;;;;;;;;;15.52;48.08;101436.44;5077315;28;1249;-48
2023/02/20 09:36:59;;;;;;;;;;;;;;;15.41;48.61;101435.44;5076900;28;1229;-46
2023/02/20 09:39:25;;;;;;;;;;;;;;;17.04;44.37;101437.84;5074183;28;1135;-46
2023/02/20 09:42:05;;;;;;;;;;;;;;;16.70;44.89;101439.94;5075092;28;1113;-50
2023/02/20 09:44:50;;;;;;;;;;;;;;;15.96;46.87;101435.72;5078629;28;996;-48
2023/02/20 09:47:21;;;;;;;;;;;;;;;15.67;47.50;101442.16;5078608;28;1015;-44
2023/02/20 09:49:47;;;;;;;;;;;;;;;15.50;47.90;101435.84;5078702;28;1193;-46
2023/02/20 09:52:13;;;;;;;;;;;;;;;15.36;48.53;101449.91;5077919;28;1901;-46
2023/02/20 09:54:39;;;;;;;;;;;;;;;16.98;44.47;101441.63;5078636;28;1102;-46
2023/02/20 09:57:15;;;;;;;;;;;;;;;16.79;44.73;101454.88;5077878;28;1202;-45
2023/02/20 09:59:41;;;;;;;;;;;;;;;15.98;46.84;101450.88;5078778;28;1111;-49
2023/02/20 10:02:23;;;;;;;;;;;;;;;15.67;47.54;101458.63;5078541;28;1086;-48
2023/02/20 10:04:49;;;;;;;;;;;;;;;15.48;47.96;101459.94;5078515;28;1107;-47
2023/02/20 10:07:34;;;;;;;;;;;;;;;15.35;48.43;101464.69;5078492;28;1089;-45
2023/02/20 10:09:59;;;;;;;;;;;;;;;16.89;44.61;101459.69;5076138;28;1243;-48
2023/02/20 10:12:25;;;;;;;;;;;;;;;16.63;45.19;101445.63;5075612;28;1959;-45
2023/02/20 10:14:59;;;;;;;;;;;;;;;15.94;46.81;101448.88;5074593;28;1245;-47
2023/02/20 10:17:37;;;;;;;;;;;;;;;15.83;47.25;101456.13;5078002;28;1039;-42
2023/02/20 10:20:08;;;;;;;;;;;;;;;17.39;43.51;101450.25;5077291;28;991;-49
2023/02/20 10:22:35;;;;;;;;;;;;;;;16.29;46.08;101462.25;5076654;28;1218;-46
2023/02/20 10:25:06;;;;;;;;;;;;;;;15.90;46.88;101465.00;5075095;28;1171;-49
2023/02/20 10:27:50;;;;;;;;;;;;;;;15.66;47.64;101465.16;5077985;28;1214;-47
2023/02/20 10:30:17;;;;;;;;;;;;;;;15.49;48.03;101465.19;5075500;28;1186;-44
2023/02/20 10:32:46;;;;;;;;;;;;;;;15.32;48.50;101459.69;5077282;28;1975;-46
2023/02/20 10:35:15;;;;;;;;;;;;;;;16.69;45.22;101443.75;5077263;28;1182;-45
2023/02/20 10:37:44;;;;;;;;;;;;;;;17.12;43.75;101441.22;5074348;28;1172;-42
2023/02/20 10:40:30;;;;;;;;;;;;;;;16.13;46.29;101447.50;5077421;28;1210;-45
2023/02/20 10:43:14;;;;;;;;;;;;;;;15.76;47.09;101439.81;5076072;28;1368;-44
2023/02/20 10:45:46;;;;;;;;;;;;;;;15.52;47.87;101447.41;5072753;28;1293;-43
2023/02/20 10:48:14;;;;;;;;;;;;;;;15.31;48.45;101444.34;5071526;28;1392;-42
2023/02/20 10:50:43;;;;;;;;;;;;;;;16.58;45.30;101445.59;5074224;28;1257;-43
2023/02/20 10:53:25;;;;;;;;;;;;;;;16.76;44.81;101445.22;5071411;28;2012;-45
2023/02/20 10:55:53;;;;;;;;;;;;;;;15.91;46.72;101452.97;5070865;28;1210;-48
2023/02/20 10:58:24;;;;;;;;;;;;;;;15.64;47.39;101459.13;5075911;28;1166;-45
2023/02/20 11:00:51;;;;;;;;;;;;;;;15.39;48.06;101465.84;5077211;28;1186;-42
2023/02/20 11:03:19;;;;;;;;;;;;;;;15.31;48.16;101458.03;5074689;28;1211;-43
2023/02/20 11:05:45;;;;;;;;;;;;;;;16.87;44.63;101464.56;5076567;28;1249;-44
2023/02/20 11:08:11;;;;;;;;;;;;;;;16.86;44.28;101466.47;5077010;28;1106;-45
2023/02/20 11:10:37;;;;;;;;;;;;;;;16.03;46.48;101464.66;5077615;28;1181;-45
2023/02/20 11:13:03;;;;;;;;;;;;;;;15.70;47.18;101462.78;5077081;28;1902;-44
2023/02/20 11:15:29;;;;;;;;;;;;;;;15.49;47.66;101453.41;5109403;27;1249;-44
2023/02/20 11:17:55;;;;;;;;;;;;;;;15.36;47.98;101451.78;5076928;28;1198;-44
2023/02/20 11:20:40;;;;;;;;;;;;;;;15.21;48.30;101445.00;5074636;28;1098;-44
2023/02/20 11:23:06;;;;;;;;;;;;;;;16.53;45.13;101437.28;5075863;28;1120;-42
2023/02/20 11:25:35;;;;;;;;;;;;;;;17.39;43.24;101441.16;5076232;28;1381;-47
2023/02/20 11:28:19;;;;;;;;;;;;;;;16.18;45.94;101439.31;5075822;28;1132;-49
2023/02/20 11:30:45;;;;;;;;;;;;;;;15.80;46.94;101443.75;5074579;28;1159;-47
2023/02/20 11:33:11;;;;;;;;;;;;;;;15.53;47.54;101449.91;5075526;28;1906;-45
2023/02/20 11:35:37;;;;;;;;;;;;;;;15.39;47.83;101454.88;5076407;28;916;-48
2023/02/20 11:38:18;;;;;;;;;;;;;;;16.05;46.20;101454.25;5075106;28;1021;-48
2023/02/20 11:40:47;;;;;;;;;;;;;;;17.18;43.59;101456.63;5076339;28;976;-48
2023/02/20 11:43:18;;;;;;;;;;;;;;;16.07;46.11;101463.06;5072709;28;1167;-45
2023/02/20 11:45:43;;;;;;;;;;;;;;;15.72;46.88;101464.19;5072168;28;975;-47
2023/02/20 11:48:09;;;;;;;;;;;;;;;15.51;47.52;101462.19;5074842;28;1241;-45
2023/02/20 11:50:39;;;;;;;;;;;;;;;15.38;47.83;101461.44;5074605;28;844;-45
2023/02/20 11:53:06;;;;;;;;;;;;;;;17.02;43.78;101453.75;5075287;28;1914;-45
2023/02/20 11:55:31;;;;;;;;;;;;;;;16.72;44.30;101446.84;5076400;28;967;-47
2023/02/20 11:57:57;;;;;;;;;;;;;;;16.01;46.01;101455.84;5074590;28;1031;-47
2023/02/20 12:00:42;;;;;;;;;;;;;;;15.70;46.93;101458.09;5075208;28;938;-48
2023/02/20 12:03:07;;;;;;;;;;;;;;;15.50;47.44;101455.88;5072863;28;1052;-46
2023/02/20 12:05:42;;;;;;;;;;;;;;;15.30;47.98;101458.28;5074281;28;1353;-48
2023/02/20 12:08:28;;;;;;;;;;;;;;;16.70;44.53;101472.88;5075324;28;1077;-47
2023/02/20 12:10:53;;;;;;;;;;;;;;;16.76;44.40;101467.19;5074764;28;840;-47
2023/02/20 12:13:19;;;;;;;;;;;;;;;15.97;46.15;101467.56;5075617;28;1921;-50
2023/02/20 12:15:46;;;;;;;;;;;;;;;15.66;47.09;101465.16;5073419;28;1022;-44
2023/02/20 12:18:27;;;;;;;;;;;;;;;15.46;47.52;101465.69;5074016;28;1243;-45
2023/02/20 12:21:12;;;;;;;;;;;;;;;15.29;47.94;101459.34;5074585;28;1450;-47
2023/02/20 12:23:52;;;;;;;;;;;;;;;16.88;44.01;101468.97;5073459;28;1187;-43
2023/02/20 12:26:21;;;;;;;;;;;;;;;16.64;44.34;101457.44;5075983;28;883;-43
2023/02/20 12:29:05;;;;;;;;;;;;;;;15.90;46.22;101460.34;5074256;28;1112;-45
2023/02/20 12:31:38;;;;;;;;;;;;;;;15.64;46.87;101466.50;5076336;28;1902;-48
2023/02/20 12:34:22;;;;;;;;;;;;;;;15.43;47.46;101463.44;5082982;28;1060;-47
2023/02/20 12:36:50;;;;;;;;;;;;;;;15.25;47.64;101463.66;5075050;28;851;-42
2023/02/20 12:39:18;;;;;;;;;;;;;;;16.76;44.01;101467.19;5107985;28;1114;-46
2023/02/20 12:41:52;;;;;;;;;;;;;;;16.99;43.32;101475.44;5076246;28;1043;-49
2023/02/20 12:44:30;;;;;;;;;;;;;;;16.00;45.66;101475.28;5075225;28;1071;-42
2023/02/20 12:47:14;;;;;;;;;;;;;;;15.72;46.77;101488.00;5075498;28;1018;-43
2023/02/20 12:49:52;;;;;;;;;;;;;;;15.48;46.96;101495.59;5073691;28;1167;-41
2023/02/20 12:52:17;;;;;;;;;;;;;;;15.30;47.29;101485.69;5075185;28;1910;-43
2023/02/20 12:54:46;;;;;;;;;;;;;;;16.19;45.38;101484.06;5075407;28;1194;-42
2023/02/20 12:57:14;;;;;;;;;;;;;;;17.41;42.58;101478.28;5070792;28;1286;-46
2023/02/20 12:59:58;;;;;;;;;;;;;;;16.32;45.03;101472.72;5073339;28;1214;-46
2023/02/20 13:02:26;;;;;;;;;;;;;;;15.80;46.19;101476.66;5074953;28;1152;-48
2023/02/20 13:04:52;;;;;;;;;;;;;;;15.59;46.77;101488.38;5073641;28;1230;-49
2023/02/20 13:07:37;;;;;;;;;;;;;;;15.42;46.97;101493.81;5074058;28;1077;-48
2023/02/20 13:10:07;;;;;;;;;;;;;;;15.60;46.59;101493.59;5075137;28;870;-44